createdAt,value
2022-10-11T00:01:18.014Z,2.20
2022-10-11T00:03:44.649Z,2.15
2022-10-11T00:06:11.184Z,2.53
2022-10-11T00:08:37.602Z,1.80
2022-10-11T00:11:05.178Z,2.17
2022-10-11T00:13:31.689Z,1.90
2022-10-11T00:15:58.200Z,2.67
2022-10-11T00:18:24.657Z,2.30
2022-10-11T00:20:51.191Z,2.05
2022-10-11T00:23:17.623Z,2.53
2022-10-11T00:25:44.029Z,2.75
2022-10-11T00:28:10.483Z,2.00
2022-10-11T00:30:36.998Z,2.00
2022-10-11T00:33:03.584Z,2.00
2022-10-11T00:35:29.992Z,2.17
2022-10-11T00:37:56.518Z,2.00
2022-10-11T00:40:22.947Z,1.70
2022-10-11T00:42:49.363Z,2.03
2022-10-11T00:45:27.633Z,1.90
2022-10-11T00:47:54.827Z,1.73
2022-10-11T00:50:22.256Z,2.00
2022-10-11T00:52:52.187Z,2.20
2022-10-11T00:55:19.748Z,2.35
2022-10-11T00:57:48.107Z,1.90
2022-10-11T01:00:15.295Z,1.55
2022-10-11T01:02:42.053Z,1.77
2022-10-11T01:05:28.188Z,2.15
2022-10-11T01:07:55.892Z,1.80
2022-10-11T01:10:22.445Z,1.92
2022-10-11T01:13:04.283Z,1.92
2022-10-11T01:15:33.718Z,2.22
2022-10-11T01:18:10.647Z,1.67
2022-10-11T01:21:00.406Z,1.77
2022-10-11T01:23:49.983Z,1.70
2022-10-11T01:26:35.079Z,1.67
2022-10-11T01:29:21.735Z,1.50
2022-10-11T01:31:51.608Z,1.95
2022-10-11T01:34:20.954Z,1.92
2022-10-11T01:36:52.100Z,1.73
2022-10-11T01:39:26.307Z,1.60
2022-10-11T01:41:54.667Z,2.25
2022-10-11T01:44:23.493Z,1.88
2022-10-11T01:46:50.982Z,2.05
2022-10-11T01:49:17.924Z,1.70
2022-10-11T01:51:47.648Z,2.00
2022-10-11T01:54:14.158Z,1.63
2022-10-11T01:56:59.332Z,1.90
2022-10-11T01:59:40.981Z,1.50
2022-10-11T02:02:25.693Z,1.80
2022-10-11T02:04:56.128Z,2.10
2022-10-11T02:07:31.361Z,1.83
2022-10-11T02:10:07.006Z,1.70
2022-10-11T02:12:54.955Z,1.63
2022-10-11T02:15:22.382Z,1.80
2022-10-11T02:17:50.578Z,1.48
2022-10-11T02:20:21.677Z,1.50
2022-10-11T02:22:49.335Z,1.67
2022-10-11T02:25:18.719Z,1.45
2022-10-11T02:27:45.731Z,1.75
2022-10-11T02:30:12.483Z,2.05
2022-10-11T02:32:40.290Z,1.58
2022-10-11T02:35:07.107Z,1.70
2022-10-11T02:37:53.910Z,2.00
2022-10-11T02:40:26.124Z,1.70
2022-10-11T02:45:26.193Z,1.77
2022-10-11T02:47:52.965Z,1.80
2022-10-11T02:50:19.386Z,1.52
2022-10-11T02:52:45.825Z,1.95
2022-10-11T02:55:12.255Z,1.92
2022-10-11T02:57:38.660Z,2.03
2022-10-11T03:00:05.516Z,1.60
2022-10-11T03:02:31.987Z,1.50
2022-10-11T03:04:58.433Z,1.60
2022-10-11T03:07:24.852Z,1.58
2022-10-11T03:09:51.258Z,1.50
2022-10-11T03:12:17.643Z,1.80
2022-10-11T03:14:44.029Z,1.30
2022-10-11T03:17:34.567Z,1.50
2022-10-11T03:19:56.932Z,2.40
2022-10-11T03:22:23.384Z,1.58
2022-10-11T03:24:49.797Z,1.70
2022-10-11T03:27:16.211Z,1.67
2022-10-11T03:29:42.582Z,1.48
2022-10-11T03:32:08.982Z,1.58
2022-10-11T03:34:35.386Z,2.38
2022-10-11T03:37:01.845Z,1.77
2022-10-11T03:39:28.355Z,1.98
2022-10-11T03:41:54.784Z,1.50
2022-10-11T03:44:21.186Z,1.40
2022-10-11T03:46:47.599Z,1.60
2022-10-11T03:49:14.014Z,1.83
2022-10-11T03:51:40.453Z,1.55
2022-10-11T03:54:06.825Z,1.38
2022-10-11T03:56:33.271Z,1.60
2022-10-11T03:58:59.741Z,1.50
2022-10-11T04:01:26.255Z,1.48
2022-10-11T04:03:55.093Z,1.70
2022-10-11T04:06:21.484Z,1.95
2022-10-11T04:08:47.883Z,1.50
2022-10-11T04:11:14.273Z,1.50
2022-10-11T04:13:41.077Z,1.67
2022-10-11T04:16:07.914Z,1.70
2022-10-11T04:18:34.525Z,1.80
2022-10-11T04:21:00.945Z,1.50
2022-10-11T04:23:27.326Z,1.80
2022-10-11T04:25:53.728Z,2.60
2022-10-11T04:28:20.282Z,1.55
2022-10-11T04:30:46.753Z,1.58
2022-10-11T04:33:13.213Z,1.67
2022-10-11T04:35:39.784Z,1.70
2022-10-11T04:38:06.603Z,1.50
2022-10-11T04:40:33.233Z,1.95
2022-10-11T04:42:59.668Z,1.67
2022-10-11T04:45:26.541Z,1.75
2022-10-11T04:47:55.760Z,1.67
2022-10-11T04:50:22.787Z,1.52
2022-10-11T04:52:49.178Z,1.67
2022-10-11T04:55:15.640Z,1.88
2022-10-11T04:57:42.094Z,1.65
2022-10-11T05:00:08.960Z,1.50
2022-10-11T05:02:35.378Z,1.60
2022-10-11T05:05:01.823Z,1.40
2022-10-11T05:07:28.273Z,1.35
2022-10-11T05:09:54.725Z,1.40
2022-10-11T05:12:21.246Z,1.20
2022-10-11T05:14:47.685Z,1.40
2022-10-11T05:17:14.243Z,1.40
2022-10-11T05:19:44.874Z,1.98
2022-10-11T05:22:11.841Z,1.40
2022-10-11T05:24:38.268Z,1.48
2022-10-11T05:27:04.700Z,1.27
2022-10-11T05:29:31.146Z,1.33
2022-10-11T05:31:57.723Z,1.80
2022-10-11T05:34:24.218Z,1.10
2022-10-11T05:36:50.663Z,1.52
2022-10-11T05:39:17.322Z,1.52
2022-10-11T05:41:43.773Z,1.50
2022-10-11T05:44:10.199Z,1.10
2022-10-11T05:46:36.770Z,1.50
2022-10-11T05:49:03.277Z,1.50
2022-10-11T05:51:29.707Z,1.35
2022-10-11T05:53:56.206Z,1.65
2022-10-11T05:56:23.815Z,1.42
2022-10-11T05:58:50.804Z,1.27
2022-10-11T06:01:21.208Z,1.30
2022-10-11T06:03:48.058Z,1.23
2022-10-11T06:06:14.695Z,1.20
2022-10-11T06:08:41.294Z,1.42
2022-10-11T06:11:15.454Z,1.17
2022-10-11T06:13:42.164Z,1.50
2022-10-11T06:16:08.853Z,1.20
2022-10-11T06:18:35.389Z,1.25
2022-10-11T06:21:01.877Z,1.45
2022-10-11T06:23:28.289Z,1.20
2022-10-11T06:26:06.105Z,1.08
2022-10-11T06:28:33.700Z,1.52
2022-10-11T06:31:00.276Z,1.17
2022-10-11T06:33:27.181Z,1.20
2022-10-11T06:35:57.945Z,1.50
2022-10-11T06:38:24.363Z,1.38
2022-10-11T06:40:50.864Z,1.75
2022-10-11T06:43:17.319Z,1.35
2022-10-11T06:45:43.754Z,1.20
2022-10-11T06:48:10.182Z,1.45
2022-10-11T06:50:58.504Z,1.30
2022-10-11T06:53:25.437Z,1.30
2022-10-11T06:55:51.827Z,1.40
2022-10-11T06:58:18.370Z,1.50
2022-10-11T07:00:44.845Z,1.42
2022-10-11T07:03:11.267Z,1.20
2022-10-11T07:05:37.709Z,2.00
2022-10-11T07:08:04.208Z,1.30
2022-10-11T07:10:30.639Z,1.08
2022-10-11T07:12:57.141Z,1.70
2022-10-11T07:15:23.629Z,1.90
2022-10-11T07:17:50.171Z,1.90
2022-10-11T07:20:16.713Z,1.30
2022-10-11T07:22:43.151Z,2.22
2022-10-11T07:25:09.654Z,1.92
2022-10-11T07:27:36.062Z,2.05
2022-10-11T07:30:02.517Z,1.58
2022-10-11T07:32:28.940Z,1.75
2022-10-11T07:34:56.600Z,1.33
2022-10-11T07:37:23.040Z,1.60
2022-10-11T07:39:49.566Z,1.70
2022-10-11T07:42:15.970Z,1.85
2022-10-11T07:44:42.386Z,2.42
2022-10-11T07:47:11.203Z,1.95
2022-10-11T07:49:38.043Z,1.40
2022-10-11T07:52:04.722Z,2.13
2022-10-11T07:54:31.129Z,1.70
2022-10-11T07:56:57.539Z,1.55
2022-10-11T07:59:23.952Z,2.28
2022-10-11T08:01:50.467Z,1.75
2022-10-11T08:04:17.030Z,1.98
2022-10-11T08:06:43.503Z,2.67
2022-10-11T08:09:10.434Z,1.42
2022-10-11T08:11:37.721Z,1.42
2022-10-11T08:14:08.903Z,1.83
2022-10-11T08:16:35.927Z,1.77
2022-10-11T08:19:03.253Z,1.83
2022-10-11T08:21:29.862Z,2.15
2022-10-11T08:23:56.509Z,1.40
2022-10-11T08:26:22.968Z,1.85
2022-10-11T08:28:49.474Z,1.30
2022-10-11T08:31:16.425Z,1.73
2022-10-11T08:34:13.307Z,2.40
2022-10-11T08:36:39.895Z,1.95
2022-10-11T08:39:08.220Z,1.20
2022-10-11T08:41:49.529Z,1.35
2022-10-11T08:44:18.705Z,1.05
2022-10-11T08:46:46.714Z,2.40
2022-10-11T08:49:14.094Z,1.70
2022-10-11T08:51:45.220Z,1.70
2022-10-11T08:54:21.102Z,1.30
2022-10-11T08:56:47.800Z,1.38
2022-10-11T08:59:26.369Z,1.77
2022-10-11T09:01:56.459Z,3.08
2022-10-11T09:04:22.999Z,2.38
2022-10-11T09:07:13.410Z,2.33
2022-10-11T09:09:42.575Z,1.70
2022-10-11T09:12:12.075Z,3.30
2022-10-11T09:14:44.451Z,3.05
2022-10-11T09:17:14.032Z,3.25
2022-10-11T09:19:58.928Z,2.53
2022-10-11T09:22:30.196Z,2.55
2022-10-11T09:25:16.127Z,2.60
2022-10-11T09:28:05.674Z,2.90
2022-10-11T09:30:32.531Z,2.20
2022-10-11T09:33:13.610Z,1.90
2022-10-11T09:35:42.460Z,3.47
2022-10-11T09:38:26.634Z,2.63
2022-10-11T09:41:04.798Z,2.28
2022-10-11T09:43:31.493Z,2.92
2022-10-11T09:45:57.930Z,2.13
2022-10-11T09:48:27.280Z,2.22
2022-10-11T09:50:55.056Z,2.03
2022-10-11T09:53:41.406Z,2.22
2022-10-11T09:56:08.333Z,2.42
2022-10-11T09:58:35.799Z,1.92
2022-10-11T10:01:07.647Z,1.55
2022-10-11T10:03:35.777Z,1.45
2022-10-11T10:06:08.806Z,2.25
2022-10-11T10:08:35.938Z,1.67
2022-10-11T10:11:04.442Z,3.13
2022-10-11T10:13:30.912Z,1.73
2022-10-11T10:16:01.255Z,2.58
2022-10-11T10:18:38.970Z,1.65
2022-10-11T10:21:07.880Z,1.25
2022-10-11T10:23:36.338Z,1.77
2022-10-11T10:26:11.729Z,1.45
2022-10-11T10:28:38.383Z,1.15
2022-10-11T10:31:04.900Z,1.85
2022-10-11T10:33:33.744Z,1.38
2022-10-11T10:36:07.770Z,1.85
2022-10-11T10:38:37.514Z,1.38
2022-10-11T10:41:11.753Z,1.40
2022-10-11T10:43:39.303Z,1.20
2022-10-11T10:46:24.456Z,1.60
2022-10-11T10:51:49.528Z,0.98
2022-10-11T10:54:23.655Z,2.00
2022-10-11T10:56:56.125Z,2.08
2022-10-11T10:59:28.633Z,1.48
2022-10-11T11:02:38.509Z,1.30
2022-10-11T11:07:46.066Z,1.83
2022-10-11T11:10:21.278Z,1.70
2022-10-11T11:13:08.088Z,1.75
2022-10-11T11:15:42.103Z,1.77
2022-10-11T11:18:26.890Z,1.75
2022-10-11T11:21:10.523Z,1.95
2022-10-11T11:23:36.857Z,1.65
2022-10-11T11:26:08.152Z,1.10
2022-10-11T11:28:37.846Z,1.67
2022-10-11T11:31:11.297Z,1.88
2022-10-11T11:33:57.972Z,1.58
2022-10-11T11:36:40.123Z,1.17
2022-10-11T11:39:12.234Z,1.42
2022-10-11T11:41:41.407Z,1.08
2022-10-11T11:44:14.571Z,1.42
2022-10-11T11:46:56.788Z,1.90
2022-10-11T11:49:26.868Z,1.48
2022-10-11T11:51:54.040Z,1.67
2022-10-11T11:54:28.209Z,1.92
2022-10-11T11:56:58.152Z,1.58
2022-10-11T11:59:32.304Z,1.10
2022-10-11T12:02:15.567Z,1.70
2022-10-11T12:04:43.712Z,1.17
2022-10-11T12:07:16.479Z,1.35
2022-10-11T12:09:45.497Z,1.20
2022-10-11T12:12:31.971Z,2.08
2022-10-11T12:15:17.363Z,0.93
2022-10-11T12:17:59.227Z,0.70
2022-10-11T12:20:26.591Z,0.80
2022-10-11T12:22:55.176Z,1.45
2022-10-11T12:25:21.546Z,1.17
2022-10-11T12:27:52.385Z,1.10
2022-10-11T12:30:37.205Z,0.82
2022-10-11T12:33:13.472Z,1.20
2022-10-11T12:35:47.453Z,1.33
2022-10-11T12:38:19.357Z,0.60
2022-10-11T12:40:47.292Z,2.03
2022-10-11T12:43:16.537Z,0.80
2022-10-11T12:45:48.129Z,1.05
2022-10-11T12:48:39.940Z,0.95
2022-10-11T12:51:21.438Z,1.60
2022-10-11T12:54:25.418Z,1.13
2022-10-11T12:56:56.780Z,1.65
2022-10-11T12:59:23.658Z,1.38
2022-10-11T13:01:54.572Z,1.45
2022-10-11T13:04:31.543Z,1.08
2022-10-11T13:07:03.201Z,0.88
2022-10-11T13:09:34.862Z,1.10
2022-10-11T13:12:04.539Z,1.15
2022-10-11T13:14:32.447Z,1.10
2022-10-11T13:17:05.118Z,1.08
2022-10-11T13:19:32.704Z,1.20
2022-10-11T13:22:00.951Z,0.70
2022-10-11T13:24:28.602Z,1.67
2022-10-11T13:26:56.481Z,1.52
2022-10-11T13:29:34.032Z,0.75
2022-10-11T13:32:08.495Z,1.75
2022-10-11T13:34:37.206Z,0.73
2022-10-11T13:37:03.745Z,0.65
2022-10-11T13:39:34.073Z,1.05
2022-10-11T13:42:02.391Z,1.00
2022-10-11T13:44:32.323Z,1.17
2022-10-11T13:46:59.201Z,0.50
2022-10-11T13:49:27.076Z,0.98
2022-10-11T13:51:57.840Z,1.05
2022-10-11T13:54:24.261Z,0.57
2022-10-11T13:56:51.411Z,1.33
2022-10-11T13:59:19.480Z,1.40
2022-10-11T14:01:46.381Z,1.00
2022-10-11T14:04:15.533Z,0.63
2022-10-11T14:06:51.920Z,0.52
2022-10-11T14:09:29.757Z,0.80
2022-10-11T14:11:56.361Z,1.10
2022-10-11T14:14:30.262Z,0.75
2022-10-11T14:16:58.492Z,1.65
2022-10-11T14:19:25.041Z,1.73
2022-10-11T14:21:52.544Z,1.40
2022-10-11T14:24:19.242Z,2.17
2022-10-11T14:26:46.614Z,2.88
2022-10-11T14:29:16.215Z,3.08
2022-10-11T14:31:42.928Z,3.20
2022-10-11T14:34:15.759Z,2.70
2022-10-11T14:36:42.254Z,3.35
2022-10-11T14:39:16.468Z,3.13
2022-10-11T14:41:43.250Z,2.83
2022-10-11T14:44:09.634Z,1.75
2022-10-11T14:46:36.260Z,2.20
2022-10-11T14:49:02.859Z,2.60
2022-10-11T14:51:32.358Z,2.35
2022-10-11T14:53:58.883Z,3.00
2022-10-11T14:56:25.326Z,2.20
2022-10-11T14:58:51.822Z,2.90
2022-10-11T15:01:18.326Z,2.28
2022-10-11T15:03:44.904Z,2.30
2022-10-11T15:06:16.692Z,2.65
2022-10-11T15:08:43.308Z,2.35
2022-10-11T15:11:10.727Z,1.80
2022-10-11T15:13:37.179Z,2.78
2022-10-11T15:16:03.931Z,2.85
2022-10-11T15:18:30.538Z,2.83
2022-10-11T15:20:58.242Z,2.83
2022-10-11T15:23:24.905Z,3.00
2022-10-11T15:25:51.328Z,2.95
2022-10-11T15:28:25.776Z,3.83
2022-10-11T15:30:52.690Z,2.42
2022-10-11T15:33:19.429Z,4.25
2022-10-11T15:35:45.831Z,2.97
2022-10-11T15:38:22.949Z,2.75
2022-10-11T15:40:49.846Z,3.53
2022-10-11T15:43:18.810Z,3.72
2022-10-11T15:48:16.037Z,2.63
2022-10-11T15:50:42.485Z,2.30
2022-10-11T15:53:10.251Z,2.50
2022-10-11T15:55:40.903Z,2.45
2022-10-11T15:58:10.822Z,2.35
2022-10-11T16:00:37.251Z,2.15
2022-10-11T16:03:19.031Z,2.65
2022-10-11T16:05:48.150Z,3.10
2022-10-11T16:08:14.576Z,3.00
2022-10-11T16:10:41.300Z,2.75
2022-10-11T16:13:08.153Z,2.88
2022-10-11T16:15:38.717Z,2.10
2022-10-11T16:18:05.937Z,2.75
2022-10-11T16:20:32.604Z,1.98
2022-10-11T16:22:59.135Z,2.22
2022-10-11T16:25:25.719Z,1.65
2022-10-11T16:27:53.054Z,2.97
2022-10-11T16:30:19.452Z,2.13
2022-10-11T16:32:46.019Z,1.75
2022-10-11T16:35:13.373Z,2.08
2022-10-11T16:37:42.142Z,2.08
2022-10-11T16:40:09.215Z,1.33
2022-10-11T16:42:35.941Z,1.48
2022-10-11T16:45:02.348Z,1.73
2022-10-11T16:47:28.730Z,2.05
2022-10-11T16:49:55.173Z,1.38
2022-10-11T16:52:21.592Z,2.22
2022-10-11T16:54:48.351Z,1.88
2022-10-11T16:57:16.097Z,1.65
2022-10-11T16:59:42.599Z,1.45
2022-10-11T17:02:15.077Z,1.83
2022-10-11T17:04:41.454Z,1.40
2022-10-11T17:07:13.328Z,2.88
2022-10-11T17:09:43.969Z,1.92
2022-10-11T17:12:11.744Z,2.05
2022-10-11T17:14:38.483Z,1.75
2022-10-11T17:17:06.672Z,2.17
2022-10-11T17:19:33.276Z,2.20
2022-10-11T17:21:59.906Z,2.25
2022-10-11T17:24:26.452Z,2.45
2022-10-11T17:26:53.415Z,2.83
2022-10-11T17:29:21.123Z,1.83
2022-10-11T17:31:50.682Z,2.33
2022-10-11T17:34:20.375Z,2.08
2022-10-11T17:36:50.237Z,2.30
2022-10-11T17:39:18.232Z,2.85
2022-10-11T17:41:45.231Z,3.67
2022-10-11T17:44:12.438Z,3.03
2022-10-11T17:46:39.188Z,2.60
2022-10-11T17:49:06.799Z,2.97
2022-10-11T17:51:34.290Z,3.08
2022-10-11T17:54:00.910Z,3.30
2022-10-11T17:56:31.314Z,3.13
2022-10-11T17:59:00.231Z,3.35
2022-10-11T18:01:28.354Z,2.53
2022-10-11T18:03:59.224Z,3.63
2022-10-11T18:06:27.587Z,4.30
2022-10-11T18:08:54.383Z,5.63
2022-10-11T18:11:21.282Z,4.30
2022-10-11T18:13:48.477Z,4.18
2022-10-11T18:16:17.457Z,4.55
2022-10-11T18:18:44.140Z,3.65
2022-10-11T18:21:19.293Z,4.55
2022-10-11T18:23:46.392Z,4.10
2022-10-11T18:26:19.386Z,4.15
2022-10-11T18:31:53.015Z,4.90
2022-10-11T18:34:19.418Z,4.57
2022-10-11T18:36:45.852Z,5.30
2022-10-11T18:39:13.488Z,4.90
2022-10-11T18:44:43.775Z,5.63
2022-10-11T18:47:10.166Z,6.57
2022-10-11T18:49:36.605Z,6.38
2022-10-11T18:52:03.340Z,6.03
2022-10-11T18:54:29.755Z,5.95
2022-10-11T18:56:56.210Z,5.80
2022-10-11T18:59:22.640Z,6.38
2022-10-11T19:01:52.361Z,6.05
2022-10-11T19:04:19.231Z,5.97
2022-10-11T19:06:50.545Z,6.95
2022-10-11T19:09:21.576Z,6.23
2022-10-11T19:11:49.091Z,6.88
2022-10-11T19:14:16.314Z,6.82
2022-10-11T19:16:45.575Z,7.03
2022-10-11T19:19:12.510Z,6.13
2022-10-11T19:21:39.563Z,6.10
2022-10-11T19:24:06.190Z,6.90
2022-10-11T19:27:10.185Z,7.43
2022-10-11T19:29:37.125Z,6.90
2022-10-11T19:32:03.696Z,6.93
2022-10-11T19:34:31.732Z,6.38
2022-10-11T19:37:00.775Z,6.32
2022-10-11T19:39:27.770Z,6.97
2022-10-11T19:41:54.206Z,6.80
2022-10-11T19:44:20.720Z,6.47
2022-10-11T19:46:51.988Z,7.18
2022-10-11T19:49:21.561Z,6.72
2022-10-11T19:51:48.043Z,6.88
2022-10-11T19:54:26.082Z,5.93
2022-10-11T19:56:52.749Z,6.80
2022-10-11T19:59:19.280Z,6.40
2022-10-11T20:01:51.994Z,5.88
2022-10-11T20:04:47.077Z,5.75
2022-10-11T20:07:06.388Z,6.40
2022-10-11T20:09:35.845Z,5.90
2022-10-11T20:12:02.298Z,6.30
2022-10-11T20:14:28.760Z,6.18
2022-10-11T20:16:55.234Z,6.28
2022-10-11T20:19:26.266Z,6.55
2022-10-11T20:21:54.371Z,6.13
2022-10-11T20:24:20.791Z,6.82
2022-10-11T20:26:47.199Z,6.28
2022-10-11T20:29:13.743Z,5.68
2022-10-11T20:31:41.799Z,5.68
2022-10-11T20:34:09.092Z,5.88
2022-10-11T20:36:36.340Z,6.22
2022-10-11T20:39:03.946Z,5.50
2022-10-11T20:41:31.868Z,7.03
2022-10-11T20:43:59.459Z,5.47
2022-10-11T20:46:26.995Z,5.63
2022-10-11T20:49:00.362Z,6.40
2022-10-11T20:51:28.303Z,5.80
2022-10-11T20:53:54.677Z,6.22
2022-10-11T20:56:21.636Z,5.88
2022-10-11T20:58:50.516Z,5.55
2022-10-11T21:01:17.931Z,5.53
2022-10-11T21:03:44.989Z,5.90
2022-10-11T21:06:11.679Z,5.88
2022-10-11T21:08:38.938Z,6.10
2022-10-11T21:11:05.891Z,5.75
2022-10-11T21:13:32.379Z,5.65
2022-10-11T21:16:10.835Z,6.60
2022-10-11T21:18:37.468Z,6.50
2022-10-11T21:21:11.481Z,6.38
2022-10-11T21:23:38.251Z,6.13
2022-10-11T21:26:05.629Z,7.35
2022-10-11T21:28:32.093Z,6.80
2022-10-11T21:31:22.029Z,6.93
2022-10-11T21:36:36.335Z,7.65
2022-10-11T21:39:03.039Z,8.32
2022-10-11T21:41:30.235Z,9.25
2022-10-11T21:43:57.235Z,8.00
2022-10-11T21:46:47.527Z,7.50
2022-10-11T21:49:14.582Z,9.60
2022-10-11T21:51:41.036Z,8.10
2022-10-11T21:54:07.461Z,9.43
2022-10-11T21:56:33.949Z,8.60
2022-10-11T21:59:00.392Z,9.25
2022-10-11T22:01:27.048Z,9.00
2022-10-11T22:03:54.133Z,8.82
2022-10-11T22:06:21.075Z,8.75
2022-10-11T22:08:48.901Z,7.95
2022-10-11T22:11:15.384Z,8.63
2022-10-11T22:13:41.828Z,8.90
2022-10-11T22:16:09.597Z,9.18
2022-10-11T22:18:36.295Z,8.65
2022-10-11T22:21:04.529Z,9.27
2022-10-11T22:23:45.553Z,9.13
2022-10-11T22:26:33.888Z,9.20
2022-10-11T22:29:00.659Z,8.93
2022-10-11T22:31:27.776Z,9.57
2022-10-11T22:33:55.008Z,9.65
2022-10-11T22:36:21.492Z,10.35
2022-10-11T22:38:47.976Z,9.45
2022-10-11T22:41:14.419Z,8.98
2022-10-11T22:43:40.998Z,9.63
2022-10-11T22:46:07.459Z,9.13
2022-10-11T22:48:33.898Z,8.85
2022-10-11T22:51:00.400Z,9.15
2022-10-11T22:53:26.889Z,9.10
2022-10-11T22:55:53.601Z,9.98
2022-10-11T22:58:20.025Z,9.52
2022-10-11T23:00:46.444Z,10.13
2022-10-11T23:03:13.452Z,8.73
2022-10-11T23:05:39.973Z,8.57
2022-10-11T23:08:06.735Z,8.73
2022-10-11T23:10:33.135Z,9.15
2022-10-11T23:13:00.035Z,9.70
2022-10-11T23:15:26.725Z,9.95
2022-10-11T23:17:53.120Z,9.98
2022-10-11T23:20:19.487Z,8.80
2022-10-11T23:22:45.891Z,9.23
2022-10-11T23:25:12.371Z,8.70
2022-10-11T23:27:39.051Z,8.82
2022-10-11T23:30:05.957Z,8.30
2022-10-11T23:32:32.598Z,7.80
2022-10-11T23:34:59.014Z,9.05
2022-10-11T23:37:25.462Z,7.95
2022-10-11T23:39:52.059Z,7.75
2022-10-11T23:42:18.469Z,7.68
2022-10-11T23:44:44.840Z,8.13
2022-10-11T23:47:11.319Z,8.27
2022-10-11T23:49:55.992Z,8.25
2022-10-11T23:52:22.405Z,9.05
2022-10-11T23:54:48.831Z,7.95
2022-10-11T23:57:25.316Z,8.50
2022-10-11T23:59:51.810Z,8.35
